Meath Environmental Platform

Observations for Trim Patrick St

Time AQI Temp °C Hum % Pres Pa CO μg/m³ H₂S μg/m³ NO μg/m³ NO₂ μg/m³ O₃ μg/m³ SO₂ μg/m³ PM1 μg/m³ PM2.5 μg/m³ PM10 μg/m³
Thursday 27 August 2026
13:35 3 20.2 79 38,460 0.11 3.1 1 56.88 14.56 0.52 18.29 24.92 27.41
13:34 3 20.1 80 38,460 0.11 1.84 0.48 16.89 39.63 1.27 20 26.96 29.66
13:33 3 20.1 80 38,460 0.13 3 0.62 21.84 49.45 0.56 20 25.53 28.09
13:32 3 20.1 80 38,460 0.12 1.6 0.74 19.04 35.55 1.25 18.29 22.77 25.05
13:31 3 20 80 38,460 0.12 1.58 0.92 13.87 41.06 1.79 19.14 26.24 28.86
13:29 3 19.9 80 38,460 0.1 2.58 1.19 16.61 54.5 1.03 18.29 24.1 26.51
13:28 3 19.9 80 38,460 0.1 1.95 0.96 18.03 46.99 0.62 19.14 25.52 28.07
13:27 3 19.9 80 38,460 0.11 3.87 1.05 20.44 46.91 0.43 18.29 25.5 28.05
13:26 3 19.8 80 38,460 0.11 3.61 1.05 23.72 43.46 0.14 21.72 29.01 31.36
13:25 3 19.8 81 38,460 0.11 3.69 1.53 20.7 51.64 0.15 20 26.83 28.42
13:23 3 19.7 80 38,460 0.12 4.46 1.89 24.25 44.81 0.79 20 26.86 29.54
13:22 3 19.6 80 38,460 0.09 5.09 1.87 23.01 45.25 0.64 19.14 24.76 27.24
13:20 3 19.5 81 38,460 0.08 2.1 1.3 14.8 48.17 0.73 16.57 24.04 26.44
13:17 3 19.3 81 38,460 0.12 4.99 1.72 29.71 39.02 0.49 19.14 24.75 27.22
13:15 3 19.3 81 38,460 0.07 6.04 1.09 27.92 48.19 0 19.14 26.15 28.76
13:14 3 19.3 80 38,460 0.06 3.68 0.91 23.48 44.33 0 19.14 25.47 28.02
13:13 3 19.2 80 38,460 0.07 4.47 0.85 20.61 42.89 0.41 17.43 24.06 26.47
13:12 3 19.2 80 38,460 0.07 5.23 0.81 31.5 44.79 0 19.14 24.76 27.24
13:11 3 19.2 81 38,460 0.07 5.78 1 39.25 45.46 0 18.29 26.13 28.75
13:10 3 19.2 80 38,460 0.04 1.95 1.12 16.45 45.1 0.31 19.14 25.47 28.02